aviador You're here:

KLNK Decoded Metar

LINCOLN in NE, USA
Report Time2018-01-18 08:54:00
UTC Time2018-01-18 09:57:04
Flight Rules vfr VFR
Wind210° at 07 kt
W.Decomp.*RWY 18: 6.4 kt HW 2.8 kt RCW
RWY 17: 5.8 kt HW 3.9 kt RCW
RWY 14: 3.1 kt HW 6.3 kt RCW
W.Rank210° ranks 17
Current wind is below 210° avg. (9.6)
Visibility9999 m
Phenomena:N/A
Clouds:N/A
Expected CloudBase > 2,400 ft AGL from Temp-Dew spread
CeilingNone
Temp-7°C (ISA -20)
Dew Point-13°C (63% RH)
AAT-12.8°C
QNH1024 hPa
Density Alt-1,575 ft
Elevation1,194 ft
Report Wrong Elevation
Raw Report
METAR KLNK 180854Z AUTO 21007KT 10SM CLR M07/M13 A3023 RMK AO2 SLP254
T10721128 56015=

Extra information for KLNK:More info

Metar Taf Metar & Taf Last 4 Metars F.Rules Stats Wind Profile Meteogram Temp Stats Airport Information Weather charts Add Link Nearby VenuesMetar ALERT Operation Metar Decoded Social comments

AIRNAV info for KLNK